TimeCST,TemperatureF,Dew PointF,Humidity,Sea Level PressureIn,VisibilityMPH,Wind Direction,Wind SpeedMPH,Gust SpeedMPH,PrecipitationIn,Events,Conditions,WindDirDegrees,DateUTC
12:04 AM,12.2,10.4,92,30.22,2.5,SW,5.8,-,0.01,Snow,Light Snow,230,2013-12-11 06:04:00
12:33 AM,12.2,12.2,100,30.21,1.5,SW,5.8,-,0.01,Snow,Light Snow,220,2013-12-11 06:33:00
12:53 AM,12.9,12.0,96,30.28,1.5,SW,6.9,-,0.02,Snow,Light Snow,220,2013-12-11 06:53:00
1:53 AM,14.0,12.0,92,30.29,1.8,WSW,3.5,-,0.02,Snow,Light Snow,250,2013-12-11 07:53:00
2:23 AM,14.0,12.2,93,30.23,2.0,Calm,Calm,-,0.00,Snow,Light Snow,0,2013-12-11 08:23:00
2:38 AM,14.0,12.2,93,30.23,1.5,NW,3.5,-,0.00,Snow,Light Snow,320,2013-12-11 08:38:00
2:53 AM,14.0,12.0,92,30.31,1.5,Calm,Calm,-,0.01,Snow,Light Snow,0,2013-12-11 08:53:00
3:09 AM,14.0,12.2,93,30.24,2.0,Calm,Calm,-,0.00,Snow,Light Snow,0,2013-12-11 09:09:00
3:28 AM,14.0,12.2,93,30.25,3.0,Calm,Calm,-,0.00,Snow,Light Snow,0,2013-12-11 09:28:00
3:35 AM,14.0,12.2,93,30.25,2.0,Calm,Calm,-,0.00,Snow,Light Snow,0,2013-12-11 09:35:00
3:45 AM,14.0,12.2,93,30.25,1.8,Calm,Calm,-,0.00,Snow,Light Snow,0,2013-12-11 09:45:00
3:53 AM,14.0,12.0,92,30.32,2.0,West,3.5,-,0.00,Snow,Light Snow,260,2013-12-11 09:53:00
4:53 AM,14.0,12.0,92,30.34,5.0,NW,4.6,-,0.01,Snow,Light Snow,310,2013-12-11 10:53:00
5:00 AM,14.0,12.2,93,30.27,10.0,NW,4.6,-,N/A,,Overcast,310,2013-12-11 11:00:00
5:53 AM,15.1,12.0,88,30.36,10.0,NW,8.1,-,N/A,,Overcast,310,2013-12-11 11:53:00
6:43 AM,15.8,10.4,79,30.32,10.0,NNW,13.8,-,N/A,,Overcast,330,2013-12-11 12:43:00
6:53 AM,14.0,9.0,80,30.39,10.0,NNW,13.8,-,N/A,,Overcast,330,2013-12-11 12:53:00
7:53 AM,9.0,3.0,77,30.44,10.0,NW,15.0,-,N/A,,Mostly Cloudy,320,2013-12-11 13:53:00
7:58 AM,8.6,1.4,73,30.37,10.0,NW,12.7,-,N/A,,Scattered Clouds,320,2013-12-11 13:58:00
8:53 AM,5.0,-2.9,70,30.49,10.0,NNW,20.7,-,N/A,,Clear,330,2013-12-11 14:53:00
9:53 AM,3.9,-5.1,66,30.53,10.0,NNW,19.6,-,N/A,,Clear,330,2013-12-11 15:53:00
10:53 AM,3.9,-6.0,64,30.54,10.0,NNW,12.7,-,N/A,,Clear,330,2013-12-11 16:53:00
11:53 AM,5.0,-7.1,58,30.54,10.0,NNW,13.8,-,N/A,,Clear,330,2013-12-11 17:53:00
12:53 PM,5.0,-7.1,58,30.54,10.0,WNW,15.0,-,N/A,,Clear,300,2013-12-11 18:53:00
1:53 PM,5.0,-9.0,52,30.54,10.0,NW,11.5,-,N/A,,Clear,320,2013-12-11 19:53:00
2:53 PM,3.9,-8.0,58,30.55,10.0,WNW,12.7,-,N/A,,Clear,300,2013-12-11 20:53:00
3:53 PM,1.9,-9.0,60,30.57,10.0,West,15.0,-,N/A,,Clear,280,2013-12-11 21:53:00
4:53 PM,-2.0,-9.0,72,30.60,10.0,West,11.5,-,N/A,,Clear,270,2013-12-11 22:53:00
5:53 PM,-2.0,-9.9,69,30.61,10.0,West,15.0,-,N/A,,Clear,280,2013-12-11 23:53:00
6:53 PM,-5.1,-11.0,76,30.60,10.0,WSW,9.2,-,N/A,,Clear,250,2013-12-12 00:53:00
7:53 PM,-5.1,-9.9,80,30.61,10.0,West,11.5,-,N/A,,Clear,260,2013-12-12 01:53:00
8:53 PM,-7.1,-11.0,83,30.61,10.0,SW,6.9,-,N/A,,Clear,230,2013-12-12 02:53:00
9:53 PM,-9.0,-11.9,87,30.60,10.0,SW,5.8,-,N/A,,Partly Cloudy,230,2013-12-12 03:53:00
10:53 PM,-9.9,-14.1,82,30.58,10.0,SW,5.8,-,N/A,,Clear,230,2013-12-12 04:53:00
11:53 PM,-6.0,-9.9,83,30.56,10.0,SW,8.1,-,N/A,,Overcast,220,2013-12-12 05:53:00